sensor_id;sensor_type;location;lat;lon;timestamp;pressure;altitude;pressure_sealevel;temperature;humidity
22572;BME280;11452;53.368;14.658;2023-03-20T00:03:58;100937.16;;;11.54;83.46
22572;BME280;11452;53.368;14.658;2023-03-20T00:09:04;100934.46;;;11.47;84.27
22572;BME280;11452;53.368;14.658;2023-03-20T00:14:13;100930.38;;;11.56;84.63
22572;BME280;11452;53.368;14.658;2023-03-20T00:19:21;100921.16;;;11.45;84.31
22572;BME280;11452;53.368;14.658;2023-03-20T00:24:27;100920.97;;;11.33;84.43
22572;BME280;11452;53.368;14.658;2023-03-20T00:29:32;100917.41;;;11.25;84.40
22572;BME280;11452;53.368;14.658;2023-03-20T00:34:38;100918.05;;;11.06;84.68
22572;BME280;11452;53.368;14.658;2023-03-20T00:39:43;100926.92;;;10.91;84.87
22572;BME280;11452;53.368;14.658;2023-03-20T00:44:51;100920.76;;;10.73;85.40
22572;BME280;11452;53.368;14.658;2023-03-20T00:49:59;100916.91;;;10.61;85.51
22572;BME280;11452;53.368;14.658;2023-03-20T00:55:05;100918.41;;;10.58;85.82
22572;BME280;11452;53.368;14.658;2023-03-20T01:00:25;100921.95;;;10.59;86.27
22572;BME280;11452;53.368;14.658;2023-03-20T01:05:31;100924.89;;;10.79;87.74
22572;BME280;11452;53.368;14.658;2023-03-20T01:10:38;100919.61;;;10.86;87.22
22572;BME280;11452;53.368;14.658;2023-03-20T01:15:44;100912.61;;;10.83;87.98
22572;BME280;11452;53.368;14.658;2023-03-20T01:20:51;100917.12;;;10.98;88.80
22572;BME280;11452;53.368;14.658;2023-03-20T01:25:56;100916.09;;;11.17;89.10
22572;BME280;11452;53.368;14.658;2023-03-20T01:31:02;100919.86;;;11.21;89.10
22572;BME280;11452;53.368;14.658;2023-03-20T01:36:14;100923.95;;;11.20;89.27
22572;BME280;11452;53.368;14.658;2023-03-20T01:41:21;100922.14;;;11.20;89.46
22572;BME280;11452;53.368;14.658;2023-03-20T01:46:29;100932.20;;;11.24;89.55
22572;BME280;11452;53.368;14.658;2023-03-20T01:51:37;100926.69;;;11.27;89.79
22572;BME280;11452;53.368;14.658;2023-03-20T01:56:48;100931.87;;;11.30;89.46
22572;BME280;11452;53.368;14.658;2023-03-20T02:01:53;100924.66;;;11.23;89.21
22572;BME280;11452;53.368;14.658;2023-03-20T02:07:00;100930.34;;;11.17;89.58
22572;BME280;11452;53.368;14.658;2023-03-20T02:12:09;100929.00;;;11.17;89.73
22572;BME280;11452;53.368;14.658;2023-03-20T02:17:15;100929.47;;;11.17;90.02
22572;BME280;11452;53.368;14.658;2023-03-20T02:28:15;100924.48;;;11.10;90.24
22572;BME280;11452;53.368;14.658;2023-03-20T02:39:02;100928.76;;;10.97;90.16
22572;BME280;11452;53.368;14.658;2023-03-20T02:44:07;100930.53;;;10.90;90.06
22572;BME280;11452;53.368;14.658;2023-03-20T02:54:40;100923.08;;;10.79;90.35
22572;BME280;11452;53.368;14.658;2023-03-20T02:59:54;100925.28;;;10.80;90.43
22572;BME280;11452;53.368;14.658;2023-03-20T03:05:03;100926.78;;;10.76;90.28
22572;BME280;11452;53.368;14.658;2023-03-20T03:10:14;100921.34;;;10.78;90.39
22572;BME280;11452;53.368;14.658;2023-03-20T03:15:26;100918.67;;;10.78;90.12
22572;BME280;11452;53.368;14.658;2023-03-20T03:20:34;100916.00;;;10.78;90.04
22572;BME280;11452;53.368;14.658;2023-03-20T03:25:41;100918.39;;;10.75;89.83
22572;BME280;11452;53.368;14.658;2023-03-20T03:30:48;100916.36;;;10.72;89.47
22572;BME280;11452;53.368;14.658;2023-03-20T03:41:37;100916.75;;;10.73;89.67
22572;BME280;11452;53.368;14.658;2023-03-20T03:46:54;100923.20;;;10.69;89.81
22572;BME280;11452;53.368;14.658;2023-03-20T03:52:00;100926.34;;;10.68;89.82
22572;BME280;11452;53.368;14.658;2023-03-20T03:57:07;100923.52;;;10.71;90.03
22572;BME280;11452;53.368;14.658;2023-03-20T04:02:16;100928.47;;;10.70;89.88
22572;BME280;11452;53.368;14.658;2023-03-20T04:07:25;100923.16;;;10.78;90.21
22572;BME280;11452;53.368;14.658;2023-03-20T04:12:40;100928.89;;;10.87;89.88
22572;BME280;11452;53.368;14.658;2023-03-20T04:17:46;100926.14;;;10.80;89.70
22572;BME280;11452;53.368;14.658;2023-03-20T04:22:53;100934.09;;;10.82;89.60
22572;BME280;11452;53.368;14.658;2023-03-20T04:27:59;100932.52;;;10.78;89.72
22572;BME280;11452;53.368;14.658;2023-03-20T04:33:08;100933.97;;;10.76;90.11
22572;BME280;11452;53.368;14.658;2023-03-20T04:38:20;100932.44;;;10.79;90.20
22572;BME280;11452;53.368;14.658;2023-03-20T04:43:28;100931.65;;;10.77;90.14
22572;BME280;11452;53.368;14.658;2023-03-20T04:48:35;100937.00;;;10.77;90.19
22572;BME280;11452;53.368;14.658;2023-03-20T04:53:40;100936.92;;;10.79;90.28
22572;BME280;11452;53.368;14.658;2023-03-20T04:58:46;100945.99;;;10.76;90.18
22572;BME280;11452;53.368;14.658;2023-03-20T05:03:53;100941.80;;;10.79;90.52
22572;BME280;11452;53.368;14.658;2023-03-20T05:09:01;100944.66;;;10.76;90.61
22572;BME280;11452;53.368;14.658;2023-03-20T05:14:09;100943.95;;;10.72;90.80
22572;BME280;11452;53.368;14.658;2023-03-20T05:19:20;100956.77;;;10.66;90.92
22572;BME280;11452;53.368;14.658;2023-03-20T05:24:35;100956.06;;;10.62;91.17
22572;BME280;11452;53.368;14.658;2023-03-20T05:29:45;100958.97;;;10.66;91.28
22572;BME280;11452;53.368;14.658;2023-03-20T05:34:52;100962.43;;;10.68;91.29
22572;BME280;11452;53.368;14.658;2023-03-20T05:40:07;100948.44;;;10.72;91.39
22572;BME280;11452;53.368;14.658;2023-03-20T05:45:30;100957.09;;;10.68;91.27
22572;BME280;11452;53.368;14.658;2023-03-20T05:50:43;100962.98;;;10.58;91.23
22572;BME280;11452;53.368;14.658;2023-03-20T05:55:50;100973.59;;;10.59;91.67
22572;BME280;11452;53.368;14.658;2023-03-20T06:01:15;100964.00;;;10.64;91.68
22572;BME280;11452;53.368;14.658;2023-03-20T06:06:30;100969.82;;;10.63;91.30
22572;BME280;11452;53.368;14.658;2023-03-20T06:11:35;100973.83;;;10.63;91.34
22572;BME280;11452;53.368;14.658;2023-03-20T06:16:42;100974.93;;;10.68;91.29
22572;BME280;11452;53.368;14.658;2023-03-20T06:21:49;100980.83;;;10.66;91.36
22572;BME280;11452;53.368;14.658;2023-03-20T06:26:56;100993.56;;;10.69;91.34
22572;BME280;11452;53.368;14.658;2023-03-20T06:32:05;101002.21;;;10.66;91.38
22572;BME280;11452;53.368;14.658;2023-03-20T06:37:11;101003.79;;;10.70;91.39
22572;BME280;11452;53.368;14.658;2023-03-20T06:42:17;101013.69;;;10.59;90.96
22572;BME280;11452;53.368;14.658;2023-03-20T06:47:23;101018.95;;;10.26;90.46
22572;BME280;11452;53.368;14.658;2023-03-20T06:52:28;101027.76;;;10.28;91.40
22572;BME280;11452;53.368;14.658;2023-03-20T06:57:36;101027.93;;;9.98;90.24
22572;BME280;11452;53.368;14.658;2023-03-20T07:02:42;101025.44;;;10.12;90.97
22572;BME280;11452;53.368;14.658;2023-03-20T07:07:49;101044.17;;;10.02;91.17
22572;BME280;11452;53.368;14.658;2023-03-20T07:12:55;101034.28;;;9.95;90.50
22572;BME280;11452;53.368;14.658;2023-03-20T07:18:01;101039.66;;;9.85;90.88
22572;BME280;11452;53.368;14.658;2023-03-20T07:23:07;101038.78;;;9.85;90.61
22572;BME280;11452;53.368;14.658;2023-03-20T07:28:13;101045.73;;;9.70;91.29
22572;BME280;11452;53.368;14.658;2023-03-20T07:33:21;101055.92;;;9.62;91.87
22572;BME280;11452;53.368;14.658;2023-03-20T07:38:27;101060.59;;;9.76;92.33
22572;BME280;11452;53.368;14.658;2023-03-20T07:43:40;101061.19;;;9.91;92.53
22572;BME280;11452;53.368;14.658;2023-03-20T07:49:02;101060.58;;;9.94;92.72
22572;BME280;11452;53.368;14.658;2023-03-20T07:54:09;101055.10;;;10.06;92.89
22572;BME280;11452;53.368;14.658;2023-03-20T07:59:15;101066.50;;;10.01;92.59
22572;BME280;11452;53.368;14.658;2023-03-20T08:04:20;101058.89;;;10.11;92.85
22572;BME280;11452;53.368;14.658;2023-03-20T08:09:26;101063.97;;;10.25;92.89
22572;BME280;11452;53.368;14.658;2023-03-20T08:14:32;101063.87;;;10.18;92.78
22572;BME280;11452;53.368;14.658;2023-03-20T08:19:38;101067.61;;;10.33;92.75
22572;BME280;11452;53.368;14.658;2023-03-20T08:24:43;101067.84;;;10.46;92.87
22572;BME280;11452;53.368;14.658;2023-03-20T08:29:49;101061.00;;;10.31;92.12
22572;BME280;11452;53.368;14.658;2023-03-20T08:34:54;101073.89;;;10.32;91.93
22572;BME280;11452;53.368;14.658;2023-03-20T08:40:00;101075.05;;;10.26;92.10
22572;BME280;11452;53.368;14.658;2023-03-20T08:45:07;101065.26;;;10.35;92.37
22572;BME280;11452;53.368;14.658;2023-03-20T08:50:12;101080.75;;;10.37;92.22
22572;BME280;11452;53.368;14.658;2023-03-20T08:55:18;101083.16;;;10.42;91.80
22572;BME280;11452;53.368;14.658;2023-03-20T09:00:24;101087.27;;;10.49;92.14
22572;BME280;11452;53.368;14.658;2023-03-20T09:05:31;101092.25;;;10.57;92.01
22572;BME280;11452;53.368;14.658;2023-03-20T09:10:37;101088.05;;;10.60;91.53
22572;BME280;11452;53.368;14.658;2023-03-20T09:15:44;101086.44;;;10.74;92.35
22572;BME280;11452;53.368;14.658;2023-03-20T09:20:50;101086.09;;;10.81;91.96
22572;BME280;11452;53.368;14.658;2023-03-20T09:25:55;101076.56;;;11.01;92.24
22572;BME280;11452;53.368;14.658;2023-03-20T09:31:01;101070.31;;;11.18;91.57
22572;BME280;11452;53.368;14.658;2023-03-20T09:36:07;101072.52;;;11.18;89.82
22572;BME280;11452;53.368;14.658;2023-03-20T09:41:24;101061.53;;;11.40;90.58
22572;BME280;11452;53.368;14.658;2023-03-20T09:52:15;101065.62;;;11.63;88.40
22572;BME280;11452;53.368;14.658;2023-03-20T09:57:28;101070.90;;;11.64;87.41
22572;BME280;11452;53.368;14.658;2023-03-20T10:02:43;101071.02;;;11.70;87.07
22572;BME280;11452;53.368;14.658;2023-03-20T10:07:46;101074.26;;;11.76;86.44
22572;BME280;11452;53.368;14.658;2023-03-20T10:18:25;101067.14;;;11.75;85.30
22572;BME280;11452;53.368;14.658;2023-03-20T10:24:05;101071.97;;;11.77;84.71
22572;BME280;11452;53.368;14.658;2023-03-20T10:28:55;101057.63;;;11.78;84.93
22572;BME280;11452;53.368;14.658;2023-03-20T10:45:04;101059.17;;;12.14;85.03
22572;BME280;11452;53.368;14.658;2023-03-20T10:50:10;101060.34;;;12.17;83.43
22572;BME280;11452;53.368;14.658;2023-03-20T10:55:23;101057.74;;;12.16;82.85
22572;BME280;11452;53.368;14.658;2023-03-20T11:00:28;101056.56;;;12.05;82.54
22572;BME280;11452;53.368;14.658;2023-03-20T11:05:35;101061.94;;;12.12;82.21
22572;BME280;11452;53.368;14.658;2023-03-20T11:10:42;101060.68;;;12.11;81.37
22572;BME280;11452;53.368;14.658;2023-03-20T11:15:48;101062.34;;;11.98;81.66
22572;BME280;11452;53.368;14.658;2023-03-20T11:20:56;101061.38;;;12.14;81.52
22572;BME280;11452;53.368;14.658;2023-03-20T11:26:11;101046.87;;;12.03;80.34
22572;BME280;11452;53.368;14.658;2023-03-20T11:36:24;101044.77;;;12.08;80.71
22572;BME280;11452;53.368;14.658;2023-03-20T11:41:31;101037.20;;;12.07;80.05
22572;BME280;11452;53.368;14.658;2023-03-20T11:46:37;101048.00;;;11.99;79.85
22572;BME280;11452;53.368;14.658;2023-03-20T11:51:42;101037.59;;;12.01;79.26
22572;BME280;11452;53.368;14.658;2023-03-20T11:56:54;101037.34;;;12.13;79.89
22572;BME280;11452;53.368;14.658;2023-03-20T12:02:01;101039.38;;;12.17;79.47
22572;BME280;11452;53.368;14.658;2023-03-20T12:07:12;101030.31;;;12.26;79.01
22572;BME280;11452;53.368;14.658;2023-03-20T12:12:33;101023.94;;;12.06;78.48
22572;BME280;11452;53.368;14.658;2023-03-20T12:17:51;101033.41;;;12.11;77.85
22572;BME280;11452;53.368;14.658;2023-03-20T12:28:27;101024.84;;;11.98;77.01
22572;BME280;11452;53.368;14.658;2023-03-20T12:38:49;101023.07;;;12.05;77.12
22572;BME280;11452;53.368;14.658;2023-03-20T12:55:13;101011.14;;;11.95;76.84
22572;BME280;11452;53.368;14.658;2023-03-20T13:06:01;101011.09;;;11.88;76.62
22572;BME280;11452;53.368;14.658;2023-03-20T13:22:05;101024.59;;;11.47;77.77
22572;BME280;11452;53.368;14.658;2023-03-20T13:37:44;101013.39;;;10.98;79.41
22572;BME280;11452;53.368;14.658;2023-03-20T14:04:37;101001.12;;;11.03;81.16
22572;BME280;11452;53.368;14.658;2023-03-20T14:09:43;100994.59;;;11.08;80.74
22572;BME280;11452;53.368;14.658;2023-03-20T14:14:59;100988.16;;;11.20;80.38
22572;BME280;11452;53.368;14.658;2023-03-20T14:20:19;100995.02;;;11.41;80.37
22572;BME280;11452;53.368;14.658;2023-03-20T14:25:19;100994.38;;;11.44;79.96
22572;BME280;11452;53.368;14.658;2023-03-20T14:41:22;100989.34;;;11.70;78.60
22572;BME280;11452;53.368;14.658;2023-03-20T14:51:55;100995.17;;;11.69;76.77
22572;BME280;11452;53.368;14.658;2023-03-20T14:57:09;100990.44;;;11.90;77.64
22572;BME280;11452;53.368;14.658;2023-03-20T15:02:26;100992.34;;;11.88;76.94
22572;BME280;11452;53.368;14.658;2023-03-20T15:07:35;100994.77;;;11.61;75.99
22572;BME280;11452;53.368;14.658;2023-03-20T15:12:42;100993.90;;;11.61;76.29
22572;BME280;11452;53.368;14.658;2023-03-20T15:17:48;100996.36;;;11.57;76.33
22572;BME280;11452;53.368;14.658;2023-03-20T15:22:59;100988.41;;;11.39;76.17
22572;BME280;11452;53.368;14.658;2023-03-20T15:28:13;100974.30;;;11.60;76.92
22572;BME280;11452;53.368;14.658;2023-03-20T15:33:26;100986.59;;;11.40;75.58
22572;BME280;11452;53.368;14.658;2023-03-20T15:38:34;100974.23;;;11.22;75.23
22572;BME280;11452;53.368;14.658;2023-03-20T15:43:39;100974.38;;;11.27;75.06
22572;BME280;11452;53.368;14.658;2023-03-20T15:48:49;100962.90;;;11.41;74.73
22572;BME280;11452;53.368;14.658;2023-03-20T15:53:55;100952.83;;;11.37;74.62
22572;BME280;11452;53.368;14.658;2023-03-20T15:59:00;100955.48;;;11.46;74.28
22572;BME280;11452;53.368;14.658;2023-03-20T16:04:08;100967.38;;;11.40;74.05
22572;BME280;11452;53.368;14.658;2023-03-20T16:09:14;100974.94;;;11.41;73.42
22572;BME280;11452;53.368;14.658;2023-03-20T16:14:23;100984.61;;;11.43;73.60
22572;BME280;11452;53.368;14.658;2023-03-20T16:19:29;100998.02;;;11.35;72.91
22572;BME280;11452;53.368;14.658;2023-03-20T16:24:37;100997.94;;;11.36;73.19
22572;BME280;11452;53.368;14.658;2023-03-20T16:29:43;100995.81;;;11.34;72.90
22572;BME280;11452;53.368;14.658;2023-03-20T16:34:50;101002.11;;;11.33;72.89
22572;BME280;11452;53.368;14.658;2023-03-20T16:40:17;101008.69;;;11.28;72.77
22572;BME280;11452;53.368;14.658;2023-03-20T16:45:30;101014.45;;;11.20;72.86
22572;BME280;11452;53.368;14.658;2023-03-20T16:50:46;101003.35;;;11.19;73.15
22572;BME280;11452;53.368;14.658;2023-03-20T16:55:55;101009.06;;;11.13;73.11
22572;BME280;11452;53.368;14.658;2023-03-20T17:01:07;101002.61;;;11.08;73.23
22572;BME280;11452;53.368;14.658;2023-03-20T17:11:34;101004.66;;;11.12;73.62
22572;BME280;11452;53.368;14.658;2023-03-20T17:16:40;101011.27;;;11.05;73.66
22572;BME280;11452;53.368;14.658;2023-03-20T17:21:47;101012.09;;;11.14;73.73
22572;BME280;11452;53.368;14.658;2023-03-20T17:26:54;101014.61;;;11.17;73.96
22572;BME280;11452;53.368;14.658;2023-03-20T17:32:00;101014.76;;;11.23;73.84
22572;BME280;11452;53.368;14.658;2023-03-20T17:37:08;101006.50;;;11.19;74.02
22572;BME280;11452;53.368;14.658;2023-03-20T17:42:18;101002.22;;;11.07;74.23
22572;BME280;11452;53.368;14.658;2023-03-20T17:47:26;101007.09;;;11.08;74.19
22572;BME280;11452;53.368;14.658;2023-03-20T17:52:32;101001.83;;;11.06;74.47
22572;BME280;11452;53.368;14.658;2023-03-20T17:57:38;101000.96;;;11.06;74.50
22572;BME280;11452;53.368;14.658;2023-03-20T18:02:44;101003.95;;;11.08;74.71
22572;BME280;11452;53.368;14.658;2023-03-20T18:07:50;101008.59;;;11.05;74.88
22572;BME280;11452;53.368;14.658;2023-03-20T18:12:55;101007.57;;;11.07;75.16
22572;BME280;11452;53.368;14.658;2023-03-20T18:18:01;101010.48;;;11.03;75.15
22572;BME280;11452;53.368;14.658;2023-03-20T18:23:07;101014.81;;;11.05;75.24
22572;BME280;11452;53.368;14.658;2023-03-20T18:28:16;101013.55;;;10.95;75.31
22572;BME280;11452;53.368;14.658;2023-03-20T18:33:26;101018.90;;;11.04;75.44
22572;BME280;11452;53.368;14.658;2023-03-20T18:38:32;101020.35;;;10.94;75.70
22572;BME280;11452;53.368;14.658;2023-03-20T18:43:38;101027.32;;;10.96;75.88
22572;BME280;11452;53.368;14.658;2023-03-20T18:48:45;101022.64;;;10.93;75.74
22572;BME280;11452;53.368;14.658;2023-03-20T18:53:50;101021.61;;;10.87;76.04
22572;BME280;11452;53.368;14.658;2023-03-20T18:58:56;101022.63;;;10.84;76.15
22572;BME280;11452;53.368;14.658;2023-03-20T19:04:02;101025.62;;;10.78;76.57
22572;BME280;11452;53.368;14.658;2023-03-20T19:09:10;101024.98;;;10.82;76.71
22572;BME280;11452;53.368;14.658;2023-03-20T19:14:15;101029.96;;;10.63;76.68
22572;BME280;11452;53.368;14.658;2023-03-20T19:19:22;101033.36;;;10.50;77.47
22572;BME280;11452;53.368;14.658;2023-03-20T19:24:28;101041.35;;;10.58;77.61
22572;BME280;11452;53.368;14.658;2023-03-20T19:29:33;101043.42;;;10.53;77.51
22572;BME280;11452;53.368;14.658;2023-03-20T19:34:39;101048.61;;;10.39;77.74
22572;BME280;11452;53.368;14.658;2023-03-20T19:39:46;101041.82;;;10.40;78.42
22572;BME280;11452;53.368;14.658;2023-03-20T19:44:51;101039.94;;;10.43;78.57
22572;BME280;11452;53.368;14.658;2023-03-20T19:49:57;101038.06;;;10.45;78.70
22572;BME280;11452;53.368;14.658;2023-03-20T19:55:03;101042.14;;;10.43;78.86
22572;BME280;11452;53.368;14.658;2023-03-20T20:00:11;101039.88;;;10.35;79.00
22572;BME280;11452;53.368;14.658;2023-03-20T20:05:37;101045.52;;;10.29;79.65
22572;BME280;11452;53.368;14.658;2023-03-20T20:10:46;101040.25;;;10.28;79.65
22572;BME280;11452;53.368;14.658;2023-03-20T20:15:52;101044.16;;;10.21;79.91
22572;BME280;11452;53.368;14.658;2023-03-20T20:20:58;101044.66;;;10.20;80.10
22572;BME280;11452;53.368;14.658;2023-03-20T20:26:05;101032.38;;;10.25;80.30
22572;BME280;11452;53.368;14.658;2023-03-20T20:31:12;101038.52;;;10.27;80.18
22572;BME280;11452;53.368;14.658;2023-03-20T20:36:18;101036.64;;;10.20;80.15
22572;BME280;11452;53.368;14.658;2023-03-20T20:41:26;101042.17;;;10.16;80.00
22572;BME280;11452;53.368;14.658;2023-03-20T20:46:32;101037.30;;;10.15;79.89
22572;BME280;11452;53.368;14.658;2023-03-20T20:51:38;101042.22;;;10.05;79.63
22572;BME280;11452;53.368;14.658;2023-03-20T20:56:43;101042.57;;;10.17;79.63
22572;BME280;11452;53.368;14.658;2023-03-20T21:01:49;101047.48;;;10.07;79.34
22572;BME280;11452;53.368;14.658;2023-03-20T21:06:56;101044.74;;;10.00;79.02
22572;BME280;11452;53.368;14.658;2023-03-20T21:12:04;101068.52;;;10.04;78.98
22572;BME280;11452;53.368;14.658;2023-03-20T21:17:11;101056.04;;;10.05;79.17
22572;BME280;11452;53.368;14.658;2023-03-20T21:22:17;101063.58;;;9.97;79.10
22572;BME280;11452;53.368;14.658;2023-03-20T21:27:25;101059.83;;;10.01;79.60
22572;BME280;11452;53.368;14.658;2023-03-20T21:32:30;101061.63;;;10.00;79.58
22572;BME280;11452;53.368;14.658;2023-03-20T21:37:37;101054.16;;;9.98;79.55
22572;BME280;11452;53.368;14.658;2023-03-20T21:42:45;101051.20;;;9.86;79.84
22572;BME280;11452;53.368;14.658;2023-03-20T21:47:51;101054.72;;;9.78;80.50
22572;BME280;11452;53.368;14.658;2023-03-20T21:52:59;101050.11;;;9.81;80.98
22572;BME280;11452;53.368;14.658;2023-03-20T21:58:06;101056.70;;;9.83;81.04
22572;BME280;11452;53.368;14.658;2023-03-20T22:03:13;101053.94;;;9.84;80.97
22572;BME280;11452;53.368;14.658;2023-03-20T22:08:21;101046.80;;;9.85;81.35
22572;BME280;11452;53.368;14.658;2023-03-20T22:13:28;101056.38;;;9.80;81.64
22572;BME280;11452;53.368;14.658;2023-03-20T22:18:36;101057.27;;;9.89;81.52
22572;BME280;11452;53.368;14.658;2023-03-20T22:23:44;101056.14;;;9.85;81.57
22572;BME280;11452;53.368;14.658;2023-03-20T22:28:51;101057.30;;;9.98;81.77
22572;BME280;11452;53.368;14.658;2023-03-20T22:33:58;101057.70;;;9.99;81.71
22572;BME280;11452;53.368;14.658;2023-03-20T22:39:06;101054.80;;;9.85;81.82
22572;BME280;11452;53.368;14.658;2023-03-20T22:44:13;101048.38;;;9.89;81.77
22572;BME280;11452;53.368;14.658;2023-03-20T22:49:21;101054.19;;;9.88;81.83
22572;BME280;11452;53.368;14.658;2023-03-20T22:54:27;101051.05;;;9.89;81.85
22572;BME280;11452;53.368;14.658;2023-03-20T22:59:32;101057.00;;;9.85;81.81
22572;BME280;11452;53.368;14.658;2023-03-20T23:04:38;101056.66;;;9.74;81.67
22572;BME280;11452;53.368;14.658;2023-03-20T23:09:45;101056.63;;;9.65;82.05
22572;BME280;11452;53.368;14.658;2023-03-20T23:14:52;101055.86;;;9.63;82.06
22572;BME280;11452;53.368;14.658;2023-03-20T23:19:58;101053.48;;;9.66;82.18
22572;BME280;11452;53.368;14.658;2023-03-20T23:25:06;101059.88;;;9.72;82.60
22572;BME280;11452;53.368;14.658;2023-03-20T23:30:14;101056.95;;;9.68;82.49
22572;BME280;11452;53.368;14.658;2023-03-20T23:35:20;101053.09;;;9.65;82.89
22572;BME280;11452;53.368;14.658;2023-03-20T23:40:25;101050.34;;;9.66;82.81
22572;BME280;11452;53.368;14.658;2023-03-20T23:45:31;101046.27;;;9.68;82.61
22572;BME280;11452;53.368;14.658;2023-03-20T23:50:37;101037.00;;;9.66;82.63
22572;BME280;11452;53.368;14.658;2023-03-20T23:55:44;101039.84;;;9.63;82.73
